createdAt,value
2023-02-17T00:00:39.274Z,27.75
2023-02-17T00:03:25.454Z,24.90
2023-02-17T00:06:11.971Z,25.20
2023-02-17T00:09:00.066Z,23.55
2023-02-17T00:11:46.582Z,26.10
2023-02-17T00:14:32.420Z,26.15
2023-02-17T00:17:18.316Z,25.88
2023-02-17T00:20:04.853Z,22.13
2023-02-17T00:22:50.742Z,25.17
2023-02-17T00:25:38.738Z,23.50
2023-02-17T00:28:24.102Z,24.10
2023-02-17T00:31:11.328Z,21.33
2023-02-17T00:33:57.117Z,20.38
2023-02-17T00:36:42.775Z,24.17
2023-02-17T00:39:28.903Z,22.02
2023-02-17T00:42:15.994Z,22.05
2023-02-17T00:45:01.551Z,22.05
2023-02-17T00:47:47.123Z,20.50
2023-02-17T00:50:32.871Z,21.67
2023-02-17T00:53:18.561Z,24.05
2023-02-17T00:56:05.392Z,21.65
2023-02-17T00:58:52.705Z,23.70
2023-02-17T01:01:39.903Z,24.65
2023-02-17T01:04:25.544Z,25.85
2023-02-17T01:07:11.580Z,25.85
2023-02-17T01:09:58.600Z,25.50
2023-02-17T01:12:44.563Z,25.73
2023-02-17T01:15:37.556Z,25.42
2023-02-17T01:18:24.985Z,28.23
2023-02-17T01:21:16.480Z,27.23
2023-02-17T01:24:04.829Z,25.00
2023-02-17T01:26:50.739Z,27.58
2023-02-17T01:29:36.348Z,28.25
2023-02-17T01:32:23.768Z,29.45
2023-02-17T01:35:09.601Z,31.52
2023-02-17T01:37:55.246Z,31.67
2023-02-17T01:40:47.287Z,29.15
2023-02-17T01:43:33.136Z,32.07
2023-02-17T01:46:18.890Z,29.92
2023-02-17T01:49:17.490Z,30.60
2023-02-17T01:52:10.944Z,32.15
2023-02-17T01:55:03.554Z,35.03
2023-02-17T01:57:51.815Z,31.42
2023-02-17T02:00:38.194Z,38.50
2023-02-17T02:03:24.663Z,31.13
2023-02-17T02:06:16.465Z,28.90
2023-02-17T02:09:05.538Z,32.42
2023-02-17T02:11:52.321Z,32.97
2023-02-17T02:14:38.238Z,32.67
2023-02-17T02:17:34.522Z,30.15
2023-02-17T02:20:48.670Z,34.95
2023-02-17T02:23:56.309Z,35.38
2023-02-17T02:27:08.731Z,34.22
2023-02-17T02:30:16.294Z,34.05
2023-02-17T02:33:11.847Z,32.03
2023-02-17T02:36:01.791Z,30.35
2023-02-17T02:38:52.983Z,32.28
2023-02-17T02:41:43.754Z,29.88
2023-02-17T02:44:32.104Z,34.83
2023-02-17T02:47:46.996Z,27.58
2023-02-17T02:50:50.357Z,28.17
2023-02-17T02:54:06.813Z,28.25
2023-02-17T02:57:08.333Z,34.13
2023-02-17T03:00:09.135Z,27.70
2023-02-17T03:02:59.446Z,28.90
2023-02-17T03:05:56.251Z,26.67
2023-02-17T03:08:46.456Z,24.85
2023-02-17T03:11:32.689Z,24.25
2023-02-17T03:14:22.220Z,24.00
2023-02-17T03:17:07.827Z,22.60
2023-02-17T03:19:53.528Z,23.42
2023-02-17T03:22:45.263Z,25.13
2023-02-17T03:25:32.514Z,22.52
2023-02-17T03:28:18.964Z,22.15
2023-02-17T03:31:05.843Z,21.13
2023-02-17T03:33:51.372Z,22.55
2023-02-17T03:36:36.958Z,24.52
2023-02-17T03:39:24.085Z,23.45
2023-02-17T03:42:10.794Z,25.02
2023-02-17T03:44:56.478Z,22.17
2023-02-17T03:47:42.231Z,23.08
2023-02-17T03:50:27.938Z,22.25
2023-02-17T03:53:13.916Z,25.02
2023-02-17T03:56:00.811Z,25.02
2023-02-17T03:58:46.202Z,23.20
2023-02-17T04:01:32.270Z,23.20
2023-02-17T04:04:17.870Z,22.23
2023-02-17T04:07:03.668Z,21.50
2023-02-17T04:09:49.623Z,21.67
2023-02-17T04:12:37.393Z,21.65
2023-02-17T04:15:22.866Z,21.13
2023-02-17T04:18:08.924Z,19.27
2023-02-17T04:20:54.748Z,18.80
2023-02-17T04:23:40.638Z,21.63
2023-02-17T04:26:26.700Z,20.00
2023-02-17T04:29:13.385Z,25.17
2023-02-17T04:31:58.907Z,21.17
2023-02-17T04:34:44.857Z,23.05
2023-02-17T04:37:30.349Z,22.65
2023-02-17T04:40:16.965Z,19.60
2023-02-17T04:43:02.864Z,22.38
2023-02-17T04:45:50.302Z,21.45
2023-02-17T04:48:35.986Z,21.85
2023-02-17T04:51:21.631Z,23.25
2023-02-17T04:54:06.926Z,23.45
2023-02-17T04:56:52.423Z,25.15
2023-02-17T04:59:38.401Z,23.65
2023-02-17T05:02:28.617Z,24.67
2023-02-17T05:05:15.444Z,25.33
2023-02-17T05:08:00.974Z,23.25
2023-02-17T05:10:46.416Z,24.02
2023-02-17T05:13:33.240Z,29.67
2023-02-17T05:16:18.696Z,30.08
2023-02-17T05:19:05.882Z,28.58
2023-02-17T05:21:51.817Z,29.42
2023-02-17T05:24:38.897Z,26.23
2023-02-17T05:27:25.169Z,25.67
2023-02-17T05:30:11.800Z,29.83
2023-02-17T05:32:57.348Z,25.77
2023-02-17T05:35:44.448Z,25.23
2023-02-17T05:38:30.380Z,26.55
2023-02-17T05:41:16.338Z,30.30
2023-02-17T05:44:02.245Z,28.67
2023-02-17T05:46:48.071Z,29.08
2023-02-17T05:49:34.044Z,27.83
2023-02-17T05:52:20.933Z,22.38
2023-02-17T05:55:07.041Z,27.20
2023-02-17T05:57:53.055Z,23.73
2023-02-17T06:00:38.830Z,22.58
2023-02-17T06:03:24.777Z,23.20
2023-02-17T06:06:10.739Z,25.55
2023-02-17T06:08:57.738Z,20.50
2023-02-17T06:11:43.132Z,23.15
2023-02-17T06:14:28.714Z,27.13
2023-02-17T06:17:14.474Z,26.77
2023-02-17T06:20:00.116Z,26.85
2023-02-17T06:22:45.949Z,24.63
2023-02-17T06:25:33.375Z,26.35
2023-02-17T06:28:19.179Z,27.33
2023-02-17T06:31:05.050Z,24.80
2023-02-17T06:33:50.718Z,30.13
2023-02-17T06:36:36.557Z,25.88
2023-02-17T06:39:22.590Z,28.55
2023-02-17T06:42:09.962Z,27.50
2023-02-17T06:44:55.544Z,29.15
2023-02-17T06:47:41.836Z,26.50
2023-02-17T06:50:28.224Z,23.90
2023-02-17T06:53:13.732Z,30.20
2023-02-17T06:55:59.586Z,26.33
2023-02-17T06:58:46.831Z,26.92
2023-02-17T07:01:32.532Z,25.23
2023-02-17T07:04:18.080Z,25.13
2023-02-17T07:07:03.974Z,24.92
2023-02-17T07:09:49.795Z,24.35
2023-02-17T07:12:35.587Z,27.95
2023-02-17T07:15:22.868Z,22.00
2023-02-17T07:18:08.535Z,23.50
2023-02-17T07:20:54.319Z,20.88
2023-02-17T07:23:39.880Z,23.17
2023-02-17T07:26:25.401Z,19.23
2023-02-17T07:29:11.449Z,20.02
2023-02-17T07:31:58.355Z,21.77
2023-02-17T07:34:44.311Z,18.60
2023-02-17T07:37:30.363Z,19.00
2023-02-17T07:40:15.964Z,18.45
2023-02-17T07:43:01.549Z,17.85
2023-02-17T07:45:47.599Z,16.15
2023-02-17T07:48:34.919Z,15.63
2023-02-17T07:51:22.589Z,16.77
2023-02-17T07:54:08.252Z,16.80
2023-02-17T07:56:53.685Z,16.55
2023-02-17T07:59:39.248Z,14.15
2023-02-17T08:02:24.596Z,18.20
2023-02-17T08:05:11.550Z,18.47
2023-02-17T08:08:15.720Z,16.25
2023-02-17T08:11:20.334Z,14.80
2023-02-17T08:19:53.307Z,11.80
2023-02-17T08:22:40.493Z,14.20
2023-02-17T08:25:27.100Z,13.70
2023-02-17T08:53:14.775Z,9.80
2023-02-17T08:56:01.933Z,9.80
2023-02-17T09:29:11.925Z,8.77
2023-02-17T09:31:57.747Z,6.95
2023-02-17T09:34:55.570Z,8.35
2023-02-17T09:37:41.544Z,7.78
2023-02-17T09:40:37.839Z,7.80
2023-02-17T09:43:28.916Z,7.80
2023-02-17T09:46:21.479Z,8.05
2023-02-17T09:49:11.402Z,6.35
2023-02-17T09:52:02.404Z,7.47
2023-02-17T09:54:58.671Z,10.27
2023-02-17T09:57:51.326Z,9.93
2023-02-17T10:03:31.208Z,7.72
2023-02-17T10:06:21.479Z,7.13
2023-02-17T10:09:13.227Z,8.18
2023-02-17T10:59:49.861Z,7.53
2023-02-17T11:02:40.027Z,7.90
2023-02-17T11:08:30.451Z,9.07
2023-02-17T11:16:59.990Z,7.40
2023-02-17T11:22:42.586Z,9.40
2023-02-17T11:28:24.958Z,10.50
2023-02-17T11:37:00.371Z,10.32
2023-02-17T11:39:49.056Z,10.75
2023-02-17T11:42:35.560Z,13.18
2023-02-17T11:45:24.145Z,11.68
2023-02-17T11:48:47.581Z,14.20
2023-02-17T11:51:48.928Z,10.90
2023-02-17T12:03:48.337Z,8.75
2023-02-17T12:06:41.531Z,9.00
2023-02-17T12:09:35.312Z,13.30
2023-02-17T12:12:31.329Z,10.13
2023-02-17T12:15:31.567Z,9.57
2023-02-17T12:18:33.605Z,10.32
2023-02-17T12:21:32.532Z,10.23
2023-02-17T12:24:53.260Z,12.20
2023-02-17T12:27:50.834Z,11.45
2023-02-17T12:30:58.109Z,11.05
2023-02-17T12:33:56.802Z,13.13
2023-02-17T13:10:46.824Z,12.32
2023-02-17T13:13:34.292Z,9.80
2023-02-17T13:16:21.928Z,16.05
2023-02-17T13:19:08.468Z,7.80
2023-02-17T13:21:56.000Z,12.57
2023-02-17T13:24:52.386Z,15.65
2023-02-17T13:30:37.921Z,16.52
2023-02-17T13:33:31.124Z,9.63
2023-02-17T13:36:20.694Z,16.60
2023-02-17T13:44:41.862Z,11.70
2023-02-17T13:53:23.582Z,10.60
2023-02-17T14:01:55.036Z,12.00
2023-02-17T14:04:44.306Z,12.30
2023-02-17T14:07:34.749Z,12.18
2023-02-17T14:10:23.494Z,12.65
2023-02-17T14:13:11.059Z,11.93
2023-02-17T14:16:00.001Z,7.90
2023-02-17T14:18:48.881Z,11.55
2023-02-17T14:21:35.458Z,11.02
2023-02-17T14:24:27.890Z,8.82
2023-02-17T14:27:14.306Z,8.07
2023-02-17T14:30:05.532Z,8.30
2023-02-17T14:33:02.351Z,13.13
2023-02-17T14:35:54.030Z,10.75
2023-02-17T14:42:08.118Z,12.25
2023-02-17T14:50:25.688Z,10.70
2023-02-17T14:53:21.320Z,8.07
2023-02-17T14:56:12.630Z,15.15
2023-02-17T15:01:45.512Z,9.45
2023-02-17T15:04:31.521Z,12.55
2023-02-17T15:07:18.766Z,8.13
2023-02-17T15:10:14.592Z,7.28
2023-02-17T15:13:00.651Z,11.43
2023-02-17T15:15:49.384Z,11.15
2023-02-17T15:21:26.892Z,9.50
2023-02-17T15:27:02.010Z,12.00
2023-02-17T15:29:48.033Z,10.48
2023-02-17T15:32:35.678Z,10.95
2023-02-17T15:35:23.355Z,12.63
2023-02-17T15:38:12.505Z,13.95
2023-02-17T15:40:58.800Z,12.88
2023-02-17T15:43:47.000Z,13.52
2023-02-17T15:49:20.895Z,13.00
2023-02-17T15:52:12.587Z,13.27
2023-02-17T15:55:00.272Z,17.33
2023-02-17T15:57:48.266Z,8.40
2023-02-17T16:00:35.569Z,16.83
2023-02-17T16:03:21.663Z,10.93
2023-02-17T16:06:09.296Z,13.18
2023-02-17T16:08:55.806Z,11.02
2023-02-17T16:11:47.911Z,12.25
2023-02-17T16:14:35.664Z,10.98
2023-02-17T16:17:21.375Z,10.30
2023-02-17T16:20:14.919Z,15.43
2023-02-17T16:23:02.790Z,8.38
2023-02-17T16:25:50.165Z,9.85
2023-02-17T16:28:36.256Z,15.90
2023-02-17T16:31:22.480Z,17.55
2023-02-17T16:34:12.541Z,13.63
2023-02-17T16:37:01.812Z,12.43
2023-02-17T16:45:22.666Z,16.55
2023-02-17T16:50:54.961Z,16.02
2023-02-17T16:53:40.430Z,13.23
2023-02-17T16:56:34.488Z,15.20
2023-02-17T16:59:22.232Z,14.10
2023-02-17T17:02:11.127Z,12.57
2023-02-17T17:04:56.869Z,14.35
2023-02-17T17:07:42.734Z,15.63
2023-02-17T17:10:31.485Z,18.10
2023-02-17T17:13:18.831Z,14.43
2023-02-17T17:16:04.705Z,13.75
2023-02-17T17:18:51.577Z,16.38
2023-02-17T17:21:37.415Z,12.82
2023-02-17T17:24:23.247Z,11.30
2023-02-17T17:27:11.325Z,16.50
2023-02-17T17:29:58.578Z,14.32
2023-02-17T17:32:44.134Z,13.07
2023-02-17T17:35:30.685Z,12.32
2023-02-17T17:38:16.744Z,15.48
2023-02-17T17:41:12.496Z,12.43
2023-02-17T17:43:58.713Z,12.18
2023-02-17T17:46:46.295Z,13.52
2023-02-17T17:49:32.429Z,19.42
2023-02-17T17:52:20.447Z,18.08
2023-02-17T17:55:06.601Z,13.10
2023-02-17T17:57:53.699Z,13.63
2023-02-17T18:00:39.703Z,14.70
2023-02-17T18:03:26.759Z,16.15
2023-02-17T18:06:16.371Z,11.50
2023-02-17T18:09:04.716Z,18.25
2023-02-17T18:17:24.093Z,9.90
2023-02-17T18:20:12.207Z,17.33
2023-02-17T18:22:57.920Z,15.32
2023-02-17T18:25:43.649Z,14.95
2023-02-17T18:28:29.467Z,14.45
2023-02-17T18:31:16.970Z,11.90
2023-02-17T18:34:02.989Z,15.90
2023-02-17T18:36:50.027Z,20.33
2023-02-17T18:39:35.456Z,17.40
2023-02-17T18:42:21.463Z,21.38
2023-02-17T18:45:08.074Z,21.17
2023-02-17T18:47:53.977Z,21.15
2023-02-17T18:50:39.830Z,25.00
2023-02-17T18:53:27.372Z,25.50
2023-02-17T18:56:15.133Z,29.27
2023-02-17T18:59:00.929Z,33.85
2023-02-17T19:01:46.560Z,23.98
2023-02-17T19:04:32.379Z,28.92
2023-02-17T19:07:17.993Z,25.63
2023-02-17T19:10:06.051Z,26.70
2023-02-17T19:12:51.720Z,29.63
2023-02-17T19:15:37.958Z,27.55
2023-02-17T19:18:23.815Z,28.20
2023-02-17T19:21:10.821Z,32.38
2023-02-17T19:23:56.457Z,33.20
2023-02-17T19:26:43.809Z,38.17
2023-02-17T19:29:29.661Z,37.90
2023-02-17T19:32:15.399Z,40.78
2023-02-17T19:35:01.370Z,43.78
2023-02-17T19:37:47.092Z,39.85
2023-02-17T19:40:34.149Z,41.85
2023-02-17T19:43:21.497Z,48.30
2023-02-17T19:46:08.253Z,39.95
2023-02-17T19:48:54.273Z,42.50
2023-02-17T19:51:40.299Z,48.05
2023-02-17T19:54:25.975Z,44.17
2023-02-17T19:57:14.772Z,35.15
2023-02-17T20:00:02.201Z,52.55
2023-02-17T20:02:50.504Z,47.28
2023-02-17T20:05:39.204Z,48.78
2023-02-17T20:08:25.019Z,44.75
2023-02-17T20:11:12.078Z,52.85
2023-02-17T20:13:58.916Z,47.47
2023-02-17T20:16:48.415Z,49.53
2023-02-17T20:19:37.475Z,52.90
2023-02-17T20:22:23.504Z,47.20
2023-02-17T20:25:09.169Z,53.28
2023-02-17T20:27:54.763Z,59.45
2023-02-17T20:30:40.371Z,51.50
2023-02-17T20:33:27.293Z,53.13
2023-02-17T20:36:13.067Z,50.63
2023-02-17T20:38:59.291Z,48.67
2023-02-17T20:41:45.521Z,59.38
2023-02-17T20:44:31.421Z,49.17
2023-02-17T20:47:17.183Z,50.42
2023-02-17T20:50:09.123Z,42.58
2023-02-17T20:52:54.728Z,54.63
2023-02-17T20:55:43.101Z,48.88
2023-02-17T20:58:28.731Z,55.67
2023-02-17T21:01:14.807Z,51.47
2023-02-17T21:04:00.407Z,52.00
2023-02-17T21:06:48.212Z,51.55
2023-02-17T21:09:34.159Z,52.88
2023-02-17T21:12:20.129Z,50.20
2023-02-17T21:15:06.610Z,42.38
2023-02-17T21:17:52.535Z,59.25
2023-02-17T21:20:38.596Z,57.58
2023-02-17T21:23:25.675Z,51.78
2023-02-17T21:26:12.914Z,55.70
2023-02-17T21:28:59.009Z,50.83
2023-02-17T21:31:45.008Z,47.75
2023-02-17T21:34:31.001Z,54.97
2023-02-17T21:37:16.611Z,58.15
2023-02-17T21:40:03.624Z,49.83
2023-02-17T21:43:07.807Z,58.22
2023-02-17T21:45:53.571Z,61.88
2023-02-17T21:48:39.189Z,59.72
2023-02-17T21:51:28.679Z,58.70
2023-02-17T21:54:14.810Z,51.05
2023-02-17T21:57:04.293Z,62.45
2023-02-17T21:59:50.611Z,58.38
2023-02-17T22:02:36.632Z,58.10
2023-02-17T22:05:22.431Z,57.58
2023-02-17T22:08:08.222Z,58.80
2023-02-17T22:10:54.034Z,52.03
2023-02-17T22:13:53.586Z,44.63
2023-02-17T22:16:40.278Z,60.58
2023-02-17T22:19:26.032Z,48.22
2023-02-17T22:22:12.076Z,50.78
2023-02-17T22:24:58.448Z,49.90
2023-02-17T22:27:44.868Z,49.20
2023-02-17T22:33:18.124Z,52.97
